Time;durP1;ratioP1;P1;durP2;ratioP2;P2;SDS_P1;SDS_P2;PMS_P1;PMS_P2;Temp;Humidity;BMP_temperature;BMP_pressure;BME280_temperature;BME280_humidity;BME280_pressure;Samples;Min_cycle;Max_cycle;Signal;HPM_P1;HPM_P2
2023/07/14 00:01:17;;;;;;;0.00;0.00;;;;;;;14.61;100.00;101630.25;5053531;28;20031;-50
2023/07/14 00:03:42;;;;;;;0.03;0.03;;;;;;;14.59;100.00;101627.63;5053206;28;20025;-50
2023/07/14 00:06:11;;;;;;;0.10;0.10;;;;;;;14.62;100.00;101626.81;5053355;28;20039;-50
2023/07/14 00:08:36;;;;;;;0.00;0.00;;;;;;;14.61;100.00;101625.06;5052753;28;20029;-49
2023/07/14 00:11:01;;;;;;;0.08;0.08;;;;;;;14.62;100.00;101626.81;5053429;28;20119;-46
2023/07/14 00:13:27;;;;;;;0.00;0.00;;;;;;;14.58;100.00;101623.25;5052890;28;20063;-45
2023/07/14 00:15:52;;;;;;;0.00;0.00;;;;;;;14.60;100.00;101619.00;5052790;28;20025;-49
2023/07/14 00:18:26;;;;;;;0.10;0.10;;;;;;;14.62;100.00;101616.44;5052928;28;20493;-47
2023/07/14 00:20:51;;;;;;;0.00;0.00;;;;;;;14.58;100.00;101620.66;5053123;28;20074;-47
2023/07/14 00:23:17;;;;;;;0.10;0.10;;;;;;;14.64;100.00;101623.47;5052445;28;20048;-49
2023/07/14 00:25:43;;;;;;;0.10;0.10;;;;;;;14.54;100.00;101612.75;5052627;28;20021;-48
2023/07/14 00:28:18;;;;;;;0.10;0.10;;;;;;;14.54;100.00;101612.75;5053198;28;20067;-47
2023/07/14 00:30:44;;;;;;;0.10;0.10;;;;;;;14.53;100.00;101616.22;5052077;28;20033;-47
2023/07/14 00:33:15;;;;;;;0.00;0.00;;;;;;;14.52;100.00;101615.31;5052725;28;20025;-49
2023/07/14 00:35:41;;;;;;;0.08;0.08;;;;;;;14.57;100.00;101613.72;5052851;28;20056;-48
2023/07/14 00:38:07;;;;;;;0.00;0.00;;;;;;;14.54;100.00;101610.16;5052300;28;20460;-50
2023/07/14 00:40:42;;;;;;;0.00;0.00;;;;;;;14.55;100.00;101612.81;5051600;28;20027;-46
2023/07/14 00:43:20;;;;;;;0.10;0.10;;;;;;;14.57;100.00;101602.47;5052883;28;20111;-48
2023/07/14 00:45:48;;;;;;;0.10;0.10;;;;;;;14.60;100.00;101607.72;5052171;28;20029;-48
2023/07/14 00:48:20;;;;;;;0.10;0.10;;;;;;;14.57;100.00;101603.34;5052696;28;20032;-47
2023/07/14 00:50:54;;;;;;;0.10;0.10;;;;;;;14.57;100.00;101603.34;5052147;28;20033;-48
2023/07/14 00:53:23;;;;;;;0.10;0.10;;;;;;;14.54;100.00;101595.50;5052730;28;20031;-47
2023/07/14 00:55:51;;;;;;;0.10;0.10;;;;;;;14.58;100.00;101593.88;5052610;28;20028;-47
2023/07/14 00:58:22;;;;;;;0.10;0.10;;;;;;;14.55;100.00;101594.66;5052175;28;20029;-48
2023/07/14 01:01:09;;;;;;;0.10;0.10;;;;;;;14.55;100.00;101596.34;5052659;28;20056;-47
2023/07/14 01:03:40;;;;;;;0.10;0.10;;;;;;;14.55;100.00;101594.66;5052632;28;20021;-49
2023/07/14 01:06:13;;;;;;;0.10;0.10;;;;;;;14.57;100.00;101597.28;5051988;28;20154;-47
2023/07/14 01:08:48;;;;;;;0.10;0.10;;;;;;;14.53;100.00;101600.66;5052061;28;20075;-50
2023/07/14 01:11:15;;;;;;;0.10;0.10;;;;;;;14.57;100.00;101607.66;5052714;28;20056;-49
2023/07/14 01:13:42;;;;;;;0.10;0.10;;;;;;;14.61;100.00;101599.13;5051786;28;20108;-48
2023/07/14 01:16:09;;;;;;;0.10;0.10;;;;;;;14.64;100.00;101594.03;5052398;28;20059;-49
2023/07/14 01:18:36;;;;;;;0.05;0.05;;;;;;;14.60;100.00;101599.94;5052121;28;20482;-47
2023/07/14 01:21:02;;;;;;;;;;;;;;;14.77;100.00;101598.69;5052885;28;20040;-49
2023/07/14 01:23:33;;;;;;;0.10;0.10;;;;;;;14.68;100.00;101594.97;5051712;28;19916;-46
2023/07/14 01:26:13;;;;;;;0.10;0.10;;;;;;;14.70;100.00;101588.13;5051791;28;20511;-47
2023/07/14 01:28:39;;;;;;;0.00;0.00;;;;;;;14.69;100.00;101587.22;5051985;28;20040;-48
2023/07/14 01:31:06;;;;;;;0.10;0.10;;;;;;;14.72;100.00;101576.94;5052406;28;20025;-46
2023/07/14 01:33:31;;;;;;;0.10;0.10;;;;;;;14.65;100.00;101582.81;5051472;28;20025;-50
2023/07/14 01:36:00;;;;;;;0.00;0.00;;;;;;;14.67;100.00;101588.03;5052118;28;20025;-50
2023/07/14 01:38:26;;;;;;;0.05;0.05;;;;;;;14.57;100.00;101580.00;5052205;28;20029;-47
2023/07/14 01:40:53;;;;;;;0.10;0.10;;;;;;;14.58;100.00;101578.28;5051838;28;20032;-49
2023/07/14 01:43:19;;;;;;;0.10;0.10;;;;;;;14.57;100.00;101579.13;5052209;28;20033;-45
2023/07/14 01:45:49;;;;;;;0.10;0.10;;;;;;;14.59;100.00;101574.84;5051763;28;20025;-48
2023/07/14 01:48:18;;;;;;;0.10;0.10;;;;;;;14.60;100.00;101576.59;5051997;28;20100;-50
2023/07/14 01:51:01;;;;;;;0.00;0.00;;;;;;;14.62;100.00;101580.13;5052956;28;20031;-49
2023/07/14 01:53:31;;;;;;;0.10;0.10;;;;;;;14.62;100.00;101575.78;5055705;28;20028;-49
2023/07/14 01:56:00;;;;;;;0.10;0.10;;;;;;;14.58;100.00;101573.09;5055409;28;20044;-50
2023/07/14 01:58:32;;;;;;;0.10;0.10;;;;;;;14.56;100.00;101577.38;5055356;28;20095;-48
2023/07/14 02:00:58;;;;;;;0.10;0.10;;;;;;;14.54;100.00;101573.84;5055464;28;20033;-46
2023/07/14 02:03:31;;;;;;;0.10;0.10;;;;;;;14.55;100.00;101575.59;5055606;28;20037;-45
2023/07/14 02:05:57;;;;;;;0.10;0.10;;;;;;;14.53;100.00;101575.56;5055780;28;20111;-48
2023/07/14 02:08:26;;;;;;;0.10;0.10;;;;;;;14.55;100.00;101570.41;5054997;28;20104;-44
2023/07/14 02:10:51;;;;;;;0.10;0.10;;;;;;;14.55;100.00;101573.00;5055387;28;20044;-49
2023/07/14 02:13:18;;;;;;;0.10;0.10;;;;;;;14.58;100.00;101567.91;5055809;28;20389;-46
2023/07/14 02:15:44;;;;;;;0.10;0.10;;;;;;;14.57;100.00;101567.03;5054765;28;20029;-46
2023/07/14 02:18:15;;;;;;;0.10;0.10;;;;;;;14.55;100.00;101562.63;5055237;28;20021;-45
2023/07/14 02:20:43;;;;;;;0.10;0.10;;;;;;;14.51;100.00;101561.69;5055283;28;20028;-50
2023/07/14 02:23:12;;;;;;;0.10;0.10;;;;;;;14.51;100.00;101555.63;5054737;28;20047;-50
2023/07/14 02:25:46;;;;;;;0.10;0.10;;;;;;;14.48;100.00;101561.63;5054648;28;20025;-49
2023/07/14 02:28:13;;;;;;;0.10;0.10;;;;;;;14.44;100.00;101563.25;5055494;28;20029;-49
2023/07/14 02:30:42;;;;;;;0.10;0.10;;;;;;;14.37;100.00;101558.75;5054429;28;20043;-50
2023/07/14 02:33:15;;;;;;;0.10;0.10;;;;;;;14.38;100.00;101560.50;5055191;28;20040;-47
2023/07/14 02:35:56;;;;;;;0.10;0.10;;;;;;;14.34;100.00;101558.66;5054918;28;20025;-48
2023/07/14 02:38:24;;;;;;;0.10;0.10;;;;;;;14.27;100.00;101556.78;5055504;28;20021;-47
2023/07/14 02:41:19;;;;;;;0.10;0.10;;;;;;;14.26;100.00;101558.47;5054811;28;20458;-49
2023/07/14 02:43:49;;;;;;;0.08;0.08;;;;;;;14.12;100.00;101563.28;5054271;28;20025;-49
2023/07/14 02:46:21;;;;;;;0.05;0.05;;;;;;;13.97;100.00;101557.72;5054692;28;20036;-49
2023/07/14 02:48:50;;;;;;;0.03;0.03;;;;;;;13.86;100.00;101557.41;5055227;28;20112;-48
2023/07/14 02:51:15;;;;;;;0.10;0.10;;;;;;;13.89;100.00;101556.63;5054477;28;20495;-47
2023/07/14 02:53:41;;;;;;;0.10;0.10;;;;;;;13.89;100.00;101559.22;5054452;28;20056;-46
2023/07/14 02:56:06;;;;;;;0.10;0.10;;;;;;;13.67;100.00;101553.44;5054755;28;20025;-49
2023/07/14 02:58:33;;;;;;;0.10;0.10;;;;;;;13.60;100.00;101554.09;5053976;28;20029;-49
2023/07/14 03:01:00;;;;;;;0.00;0.00;;;;;;;13.58;100.00;101548.00;5054585;28;20047;-50
2023/07/14 03:03:26;;;;;;;0.10;0.10;;;;;;;13.63;100.00;101556.78;5053674;28;20036;-50
2023/07/14 03:05:53;;;;;;;0.10;0.10;;;;;;;13.65;100.00;101555.97;5054109;28;20025;-49
2023/07/14 03:08:19;;;;;;;0.10;0.10;;;;;;;13.70;100.00;101553.53;5054373;28;20025;-48
2023/07/14 03:10:46;;;;;;;0.10;0.10;;;;;;;13.78;100.00;101557.19;5054330;28;20032;-48
2023/07/14 03:13:13;;;;;;;0.10;0.10;;;;;;;13.73;100.00;101552.75;5053993;28;20060;-46
2023/07/14 03:15:39;;;;;;;0.00;0.00;;;;;;;13.80;100.00;101549.47;5053872;28;20457;-49
2023/07/14 03:18:04;;;;;;;0.10;0.10;;;;;;;13.80;100.00;101547.78;5054562;28;20074;-48
2023/07/14 03:20:30;;;;;;;0.10;0.10;;;;;;;13.86;100.00;101551.38;5053697;28;20025;-49
2023/07/14 03:22:56;;;;;;;0.28;0.10;;;;;;;13.81;100.00;101546.03;5054025;28;20056;-48
2023/07/14 03:25:21;;;;;;;0.08;0.08;;;;;;;13.81;100.00;101549.53;5053766;28;20465;-49
2023/07/14 03:27:47;;;;;;;0.03;0.03;;;;;;;13.79;100.00;101543.41;5053711;28;20487;-46
2023/07/14 03:30:13;;;;;;;0.00;0.00;;;;;;;13.79;100.00;101539.97;5054493;28;20029;-48
2023/07/14 03:32:39;;;;;;;0.00;0.00;;;;;;;13.86;100.00;101543.59;5053114;28;20028;-48
2023/07/14 03:35:05;;;;;;;0.00;0.00;;;;;;;13.91;100.00;101535.09;5053723;28;20032;-46
2023/07/14 03:37:30;;;;;;;0.10;0.10;;;;;;;13.94;100.00;101534.31;5053784;28;20112;-47
2023/07/14 03:39:56;;;;;;;0.10;0.10;;;;;;;13.98;100.00;101538.72;5053452;28;20021;-48
2023/07/14 03:42:21;;;;;;;0.10;0.10;;;;;;;14.04;100.00;101531.13;5053704;28;20423;-44
2023/07/14 03:44:47;;;;;;;0.10;0.10;;;;;;;14.05;100.00;101527.69;5053714;28;20043;-46
2023/07/14 03:47:12;;;;;;;0.00;0.00;;;;;;;14.07;100.00;101523.44;5053437;28;20484;-49
2023/07/14 03:49:38;;;;;;;0.08;0.08;;;;;;;14.09;100.00;101520.88;5053321;28;20025;-45
2023/07/14 03:52:04;;;;;;;0.00;0.00;;;;;;;14.13;100.00;101517.53;5053717;28;20143;-46
2023/07/14 03:54:30;;;;;;;0.10;0.10;;;;;;;14.10;100.00;101518.31;5052787;28;20111;-49
2023/07/14 03:56:55;;;;;;;0.10;0.10;;;;;;;14.13;100.00;101520.13;5053515;28;20029;-47
2023/07/14 03:59:21;;;;;;;0.10;0.10;;;;;;;14.12;100.00;101514.03;5053578;28;20092;-48
2023/07/14 04:01:47;;;;;;;0.10;0.10;;;;;;;14.11;100.00;101522.69;5052779;28;20053;-46
2023/07/14 04:04:13;;;;;;;0.10;0.10;;;;;;;14.11;100.00;101519.19;5053350;28;20029;-49
2023/07/14 04:06:39;;;;;;;0.10;0.10;;;;;;;14.12;100.00;101516.63;5053103;28;20032;-47
2023/07/14 04:09:06;;;;;;;0.10;0.10;;;;;;;14.08;100.00;101520.00;5052828;28;20027;-45
2023/07/14 04:11:34;;;;;;;0.10;0.10;;;;;;;14.11;100.00;101522.69;5052736;28;20025;-45
2023/07/14 04:14:04;;;;;;;0.10;0.10;;;;;;;14.17;100.00;101519.34;5053449;28;20025;-50
2023/07/14 04:16:30;;;;;;;0.10;0.10;;;;;;;14.14;100.00;101520.16;5052659;28;20064;-47
2023/07/14 04:18:56;;;;;;;0.10;0.10;;;;;;;14.16;100.00;101520.19;5052968;28;20483;-48
2023/07/14 04:21:24;;;;;;;0.03;0.03;;;;;;;14.21;100.00;101518.59;5052979;28;20025;-50
2023/07/14 04:23:54;;;;;;;0.10;0.10;;;;;;;14.23;100.00;101523.81;5052420;28;20059;-45
2023/07/14 04:26:20;;;;;;;0.10;0.10;;;;;;;14.27;100.00;101512.69;5052986;28;20043;-44
2023/07/14 04:28:46;;;;;;;0.10;0.10;;;;;;;14.32;100.00;101511.09;5052165;28;20459;-49
2023/07/14 04:31:11;;;;;;;0.10;0.10;;;;;;;14.32;100.00;101508.50;5053113;28;20537;-47
2023/07/14 04:33:36;;;;;;;0.10;0.10;;;;;;;14.35;100.00;101507.69;5052691;28;20388;-50
2023/07/14 04:36:02;;;;;;;0.10;0.10;;;;;;;14.39;100.00;101512.97;5052389;28;20044;-49
2023/07/14 04:38:29;;;;;;;0.10;0.10;;;;;;;14.42;100.00;101514.78;5052527;28;20052;-45
2023/07/14 04:40:55;;;;;;;0.10;0.10;;;;;;;14.44;100.00;101510.50;5052965;28;20025;-48
2023/07/14 04:43:22;;;;;;;0.10;0.10;;;;;;;14.49;100.00;101517.56;5052310;28;20755;-44
2023/07/14 04:45:51;;;;;;;0.10;0.10;;;;;;;14.52;100.00;101511.56;5052356;28;20392;-45
2023/07/14 04:48:19;;;;;;;0.10;0.10;;;;;;;14.55;100.00;101515.94;5052952;28;20025;-45
2023/07/14 04:50:46;;;;;;;0.08;0.08;;;;;;;14.59;100.00;101518.66;5052045;28;20044;-46
2023/07/14 04:53:12;;;;;;;0.10;0.10;;;;;;;14.64;100.00;101521.38;5052533;28;20055;-49
2023/07/14 04:55:43;;;;;;;0.10;0.10;;;;;;;14.67;100.00;101520.56;5052633;28;20028;-44
2023/07/14 04:58:10;;;;;;;0.10;0.10;;;;;;;14.71;100.00;101517.25;5052108;28;20025;-48
2023/07/14 05:00:38;;;;;;;0.10;0.10;;;;;;;14.75;100.00;101519.06;5052371;28;20024;-45
2023/07/14 05:03:04;;;;;;;0.10;0.10;;;;;;;14.71;100.00;101520.69;5052883;28;20032;-48
2023/07/14 05:05:29;;;;;;;0.10;0.10;;;;;;;14.69;100.00;101511.13;5051824;28;20036;-44
2023/07/14 05:07:58;;;;;;;0.10;0.10;;;;;;;14.68;100.00;101515.44;5052328;28;20074;-44
2023/07/14 05:10:25;;;;;;;0.10;0.10;;;;;;;14.69;100.00;101517.19;5052528;28;20491;-45
2023/07/14 05:12:52;;;;;;;0.10;0.10;;;;;;;14.71;100.00;101512.91;5051920;28;20526;-44
2023/07/14 05:15:18;;;;;;;0.10;0.10;;;;;;;14.74;100.00;101510.38;5052526;28;20491;-45
2023/07/14 05:17:43;;;;;;;0.10;0.10;;;;;;;14.79;100.00;101506.16;5051776;28;20025;-45
2023/07/14 05:20:10;;;;;;;0.10;0.10;;;;;;;14.87;100.00;101502.88;5052208;28;20029;-44
2023/07/14 05:22:40;;;;;;;0.10;0.10;;;;;;;14.94;100.00;101507.38;5052109;28;20041;-48
2023/07/14 05:25:06;;;;;;;0.05;0.05;;;;;;;14.99;100.00;101508.38;5051813;28;20040;-45
2023/07/14 05:27:32;;;;;;;0.10;0.10;;;;;;;15.03;100.00;101494.59;5056085;28;20029;-46
2023/07/14 05:29:57;;;;;;;0.10;0.10;;;;;;;15.06;100.00;101499.84;5056552;28;20393;-46
2023/07/14 05:32:24;;;;;;;0.10;0.10;;;;;;;15.21;100.00;101508.81;5055565;28;20100;-45
2023/07/14 05:34:50;;;;;;;0.10;0.10;;;;;;;15.33;100.00;101509.06;5056145;28;20029;-47
2023/07/14 05:37:16;;;;;;;0.00;0.00;;;;;;;15.44;100.00;101504.06;5056734;28;20025;-48
2023/07/14 05:39:42;;;;;;;0.10;0.10;;;;;;;15.46;100.00;101505.84;5055583;28;20029;-51
2023/07/14 05:42:08;;;;;;;0.10;0.10;;;;;;;15.54;100.00;101502.56;5056183;28;20027;-44
2023/07/14 05:44:33;;;;;;;0.10;0.10;;;;;;;15.52;100.00;101496.44;5055941;28;20021;-44
2023/07/14 05:46:59;;;;;;;0.00;0.00;;;;;;;15.51;100.00;101500.78;5055378;28;20053;-49
2023/07/14 05:49:24;;;;;;;0.00;0.00;;;;;;;15.53;100.00;101495.59;5055490;28;20025;-44
2023/07/14 05:51:53;;;;;;;0.00;0.00;;;;;;;15.58;100.00;101504.34;5055982;28;20024;-44
2023/07/14 05:54:20;;;;;;;0.00;0.00;;;;;;;15.56;100.00;101503.47;5055631;28;20087;-45
2023/07/14 05:56:46;;;;;;;0.10;0.10;;;;;;;15.53;100.00;101493.91;5055595;28;20027;-44
2023/07/14 05:59:12;;;;;;;0.00;0.00;;;;;;;15.45;100.00;101505.84;5055880;28;20031;-49
2023/07/14 06:01:37;;;;;;;0.10;0.10;;;;;;;15.46;100.00;101500.66;5054972;28;20025;-44
2023/07/14 06:04:05;;;;;;;0.00;0.00;;;;;;;15.54;100.00;101499.94;5055527;28;20108;-49
2023/07/14 06:06:31;;;;;;;;;;;;;;;15.66;100.00;101502.81;5055719;28;20047;-46
2023/07/14 06:08:57;;;;;;;0.00;0.00;;;;;;;15.65;100.00;101503.66;5055330;28;19913;-45
2023/07/14 06:11:23;;;;;;;0.10;0.10;;;;;;;15.73;100.00;101504.66;5055275;28;20599;-44
2023/07/14 06:13:48;;;;;;;0.00;0.00;;;;;;;15.84;100.00;101506.59;5055626;28;20025;-50
2023/07/14 06:16:14;;;;;;;0.00;0.00;;;;;;;15.89;100.00;101507.56;5054762;28;20036;-49
2023/07/14 06:18:39;;;;;;;0.10;0.10;;;;;;;15.92;100.00;101505.00;5055126;28;20050;-46
2023/07/14 06:21:04;;;;;;;0.10;0.10;;;;;;;15.87;100.00;101506.66;5054856;28;20032;-44
2023/07/14 06:23:30;;;;;;;0.10;0.10;;;;;;;15.86;100.00;101495.38;5054759;28;20532;-48
2023/07/14 06:25:57;;;;;;;0.10;0.10;;;;;;;15.95;100.00;101498.16;5055600;28;20025;-45
2023/07/14 06:28:23;;;;;;;0.00;0.00;;;;;;;16.07;100.00;101497.47;5054548;28;20131;-49
2023/07/14 06:30:56;;;;;;;0.00;0.00;;;;;;;16.08;98.66;101504.44;5054963;28;20104;-46
2023/07/14 06:33:22;;;;;;;0.00;0.00;;;;;;;16.12;98.89;101503.63;5055186;28;20377;-44
2023/07/14 06:35:47;;;;;;;0.05;0.05;;;;;;;16.10;97.75;101500.16;5054540;28;20017;-45
2023/07/14 06:38:12;;;;;;;0.00;0.00;;;;;;;16.21;99.14;101499.47;5053776;28;20025;-47
2023/07/14 06:40:38;;;;;;;0.00;0.00;;;;;;;16.26;97.05;101497.81;5055082;28;20159;-48
2023/07/14 06:43:07;;;;;;;0.00;0.00;;;;;;;16.29;97.12;101495.25;5054595;28;20104;-44
2023/07/14 06:45:33;;;;;;;0.00;0.00;;;;;;;16.36;96.46;101498.81;5054369;28;20057;-47
2023/07/14 06:47:58;;;;;;;0.10;0.10;;;;;;;16.35;95.24;101492.75;5054868;28;20167;-45
2023/07/14 06:50:24;;;;;;;0.00;0.00;;;;;;;16.34;95.49;101492.75;5054071;28;20036;-44
2023/07/14 06:52:51;;;;;;;0.00;0.00;;;;;;;16.32;95.83;101494.44;5054531;28;20021;-44
2023/07/14 06:55:16;;;;;;;0.00;0.00;;;;;;;16.33;94.69;101486.63;5054964;28;20053;-44
2023/07/14 06:57:41;;;;;;;0.05;0.05;;;;;;;16.41;94.57;101476.34;5053902;28;20083;-46
2023/07/14 07:00:10;;;;;;;0.05;0.05;;;;;;;16.60;95.62;101483.63;5054499;28;20033;-45
2023/07/14 07:02:36;;;;;;;0.00;0.00;;;;;;;16.93;96.10;101477.16;5054287;28;20029;-49
2023/07/14 07:05:04;;;;;;;0.00;0.00;;;;;;;17.14;93.64;101483.50;5054382;28;20025;-44
2023/07/14 07:07:30;;;;;;;0.00;0.00;;;;;;;17.16;90.46;101475.69;5054055;28;20032;-49
2023/07/14 07:09:56;;;;;;;0.00;0.00;;;;;;;17.26;89.77;101470.63;5054731;28;20052;-47
2023/07/14 07:12:22;;;;;;;0.05;0.05;;;;;;;17.29;86.91;101477.63;5053749;28;20017;-46
2023/07/14 07:14:48;;;;;;;0.00;0.00;;;;;;;17.38;88.46;101476.84;5054510;28;20029;-48
2023/07/14 07:17:14;;;;;;;0.10;0.10;;;;;;;17.54;89.02;101473.53;5054434;28;20028;-48
2023/07/14 07:19:39;;;;;;;0.00;0.00;;;;;;;17.67;88.38;101478.91;5053194;28;20029;-44
2023/07/14 07:22:07;;;;;;;0.08;0.08;;;;;;;17.70;86.74;101474.59;5054327;28;20069;-49
2023/07/14 07:24:32;;;;;;;0.00;0.00;;;;;;;17.65;85.55;101465.84;5053370;28;20530;-45
2023/07/14 07:26:58;;;;;;;0.00;0.00;;;;;;;17.51;85.16;101457.88;5053946;28;20029;-49
2023/07/14 07:29:24;;;;;;;0.00;0.00;;;;;;;17.49;85.10;101461.31;5053838;28;20017;-47
2023/07/14 07:31:49;;;;;;;0.00;0.00;;;;;;;17.45;84.72;101460.41;5053573;28;20082;-44
2023/07/14 07:34:15;;;;;;;0.00;0.00;;;;;;;17.62;85.22;101465.81;5053966;28;20552;-44
2023/07/14 07:36:40;;;;;;;0.00;0.00;;;;;;;17.73;84.81;101461.56;5053841;28;20032;-44
2023/07/14 07:39:05;;;;;;;0.00;0.00;;;;;;;17.81;84.86;101466.00;5053620;28;20104;-44
2023/07/14 07:41:31;;;;;;;0.00;0.00;;;;;;;17.77;84.42;101460.75;5053441;28;20029;-45
2023/07/14 07:43:57;;;;;;;0.00;0.00;;;;;;;17.94;85.85;101454.84;5053966;28;20151;-51
2023/07/14 07:46:22;;;;;;;0.00;0.00;;;;;;;18.07;84.36;101459.28;5053101;28;20492;-46
2023/07/14 07:48:49;;;;;;;0.00;0.00;;;;;;;18.09;81.83;101452.38;5053191;28;20060;-48
2023/07/14 07:51:14;;;;;;;0.00;0.00;;;;;;;18.05;81.84;101454.91;5053914;28;20074;-45
2023/07/14 07:53:40;;;;;;;0.00;0.00;;;;;;;18.06;80.71;101454.06;5052704;28;20469;-48
2023/07/14 07:56:05;;;;;;;0.00;0.00;;;;;;;18.13;82.11;101449.78;5053508;28;20029;-44
2023/07/14 07:58:31;;;;;;;0.00;0.00;;;;;;;18.36;81.00;101455.16;5053397;28;20032;-48
2023/07/14 08:01:02;;;;;;;0.00;0.00;;;;;;;18.36;80.52;101456.06;5052925;28;20036;-48
2023/07/14 08:03:28;;;;;;;0.00;0.00;;;;;;;18.45;79.72;101444.81;5053091;28;20079;-44
2023/07/14 08:06:05;;;;;;;0.10;0.10;;;;;;;18.55;80.13;101443.13;5053475;28;20025;-44
2023/07/14 08:08:31;;;;;;;0.00;0.00;;;;;;;18.68;77.10;101437.13;5052423;28;20108;-49
2023/07/14 08:10:57;;;;;;;0.00;0.00;;;;;;;18.80;76.50;101444.13;5053535;28;20100;-45
2023/07/14 08:13:25;;;;;;;0.00;0.00;;;;;;;18.70;77.13;101437.97;5053133;28;20025;-44
2023/07/14 08:15:54;;;;;;;0.00;0.00;;;;;;;18.81;75.44;101437.16;5052728;28;20158;-45
2023/07/14 08:18:20;;;;;;;0.00;0.00;;;;;;;18.98;75.87;101440.78;5053572;28;20028;-44
2023/07/14 08:20:47;;;;;;;0.00;0.00;;;;;;;19.17;75.08;101435.59;5052649;28;20025;-49
2023/07/14 08:23:14;;;;;;;0.00;0.00;;;;;;;19.04;73.64;101440.81;5052757;28;20489;-50
2023/07/14 08:25:40;;;;;;;0.00;0.00;;;;;;;18.98;72.86;101446.00;5052852;28;20542;-46
2023/07/14 08:28:07;;;;;;;0.10;0.00;;;;;;;18.90;74.28;101440.75;5052585;28;20041;-49
2023/07/14 08:30:33;;;;;;;0.10;0.10;;;;;;;18.81;72.87;101443.28;5052503;28;20032;-49
2023/07/14 08:32:58;;;;;;;0.00;0.00;;;;;;;18.82;72.19;101444.13;5053252;28;20104;-49
2023/07/14 08:35:24;;;;;;;0.00;0.00;;;;;;;18.77;72.32;101436.28;5052310;28;20025;-47
2023/07/14 08:37:50;;;;;;;0.00;0.00;;;;;;;18.75;71.23;101438.88;5052879;28;20032;-46
2023/07/14 08:40:23;;;;;;;0.00;0.00;;;;;;;18.82;73.88;101444.13;5052878;28;20420;-49
2023/07/14 08:43:14;;;;;;;0.00;0.00;;;;;;;18.86;71.43;101445.88;5052602;28;20024;-50
2023/07/14 08:46:07;;;;;;;0.00;0.00;;;;;;;18.98;72.24;101446.00;5052185;28;20543;-49
2023/07/14 08:48:38;;;;;;;0.00;0.00;;;;;;;18.83;71.10;101446.75;5052657;28;20047;-49
2023/07/14 08:51:18;;;;;;;0.10;0.10;;;;;;;18.90;71.94;101445.97;5052293;28;20028;-49
2023/07/14 08:54:01;;;;;;;0.00;0.00;;;;;;;18.88;72.51;101444.19;5052811;28;20025;-50
2023/07/14 08:56:31;;;;;;;0.00;0.00;;;;;;;18.84;71.37;101442.41;5051961;28;20108;-49
2023/07/14 08:58:57;;;;;;;0.00;0.00;;;;;;;19.13;70.69;101434.72;5052597;28;20025;-46
2023/07/14 09:01:34;;;;;;;0.00;0.00;;;;;;;19.18;69.52;101432.13;5051691;28;20029;-49
2023/07/14 09:04:05;;;;;;;0.00;0.00;;;;;;;19.40;68.03;101427.84;5052345;28;20025;-45
2023/07/14 09:06:36;;;;;;;0.00;0.00;;;;;;;19.66;67.28;101429.63;5052069;28;20029;-47
2023/07/14 09:09:08;;;;;;;0.00;0.00;;;;;;;19.90;64.92;101413.09;5052872;28;20033;-50
2023/07/14 09:11:35;;;;;;;0.00;0.00;;;;;;;19.97;63.95;101413.97;5051468;28;20444;-50
2023/07/14 09:14:24;;;;;;;0.00;0.00;;;;;;;20.23;65.64;101417.44;5052851;28;20029;-45
2023/07/14 09:17:12;;;;;;;0.00;0.00;;;;;;;20.42;65.38;101411.31;5052550;28;20036;-47
2023/07/14 09:20:06;;;;;;;0.00;0.00;;;;;;;20.43;65.07;101407.81;5052144;28;20016;-47
2023/07/14 09:22:48;;;;;;;0.00;0.00;;;;;;;20.40;63.45;101401.69;5052161;28;20053;-45
2023/07/14 09:25:39;;;;;;;0.00;0.00;;;;;;;20.67;66.16;101410.34;5052126;28;20033;-46
2023/07/14 09:28:14;;;;;;;0.00;0.00;;;;;;;20.63;63.52;101412.97;5052294;28;20498;-50
2023/07/14 09:30:39;;;;;;;0.00;0.00;;;;;;;20.71;63.36;101400.78;5052046;28;20021;-45
2023/07/14 09:33:08;;;;;;;0.00;0.00;;;;;;;20.86;63.96;101402.44;5051472;28;20033;-47
2023/07/14 09:35:34;;;;;;;0.00;0.00;;;;;;;20.97;62.13;101395.41;5051965;28;20021;-50
2023/07/14 09:38:07;;;;;;;0.00;0.00;;;;;;;21.11;62.20;101397.09;5051962;28;20037;-50
2023/07/14 09:40:36;;;;;;;0.00;0.00;;;;;;;21.38;62.98;101393.41;5051879;28;20025;-51
2023/07/14 09:43:03;;;;;;;0.00;0.00;;;;;;;21.94;58.21;101380.78;5052343;28;20021;-51
2023/07/14 09:45:31;;;;;;;0.00;0.00;;;;;;;21.94;60.56;101388.66;5051438;28;20021;-46
2023/07/14 09:48:17;;;;;;;0.00;0.00;;;;;;;22.22;60.78;101385.78;5052204;28;20056;-49
2023/07/14 09:51:12;;;;;;;0.00;0.00;;;;;;;22.50;60.46;101382.88;5052102;28;20099;-49
2023/07/14 09:53:39;;;;;;;0.00;0.00;;;;;;;22.47;58.34;101375.03;5050405;28;20039;-49
2023/07/14 09:56:16;;;;;;;0.00;0.00;;;;;;;22.63;57.53;101381.84;5052249;28;20029;-50
2023/07/14 09:58:54;;;;;;;0.00;0.00;;;;;;;22.66;57.07;101367.81;5052089;28;20028;-51
2023/07/14 10:01:20;;;;;;;0.00;0.00;;;;;;;22.77;55.37;101370.28;5051428;28;20025;-51
2023/07/14 10:03:54;;;;;;;0.00;0.00;;;;;;;22.58;57.05;101377.53;5051856;28;20036;-49
2023/07/14 10:06:20;;;;;;;0.00;0.00;;;;;;;22.64;55.03;101361.69;5051671;28;20064;-49
2023/07/14 10:08:48;;;;;;;0.00;0.00;;;;;;;22.80;55.03;101365.88;5051707;28;20056;-49
2023/07/14 10:11:44;;;;;;;0.00;0.00;;;;;;;22.88;53.97;101351.75;5052239;28;20124;-48
2023/07/14 10:14:25;;;;;;;0.00;0.00;;;;;;;22.88;54.81;101357.88;5052301;28;20040;-49
2023/07/14 10:16:53;;;;;;;0.00;0.00;;;;;;;23.12;54.17;101347.91;5055288;28;20508;-50
2023/07/14 10:19:20;;;;;;;0.00;0.00;;;;;;;23.05;52.88;101349.75;5055489;28;20381;-47
2023/07/14 10:22:11;;;;;;;0.00;0.00;;;;;;;22.76;55.69;101340.53;5054351;28;20045;-50
2023/07/14 10:24:37;;;;;;;0.00;0.00;;;;;;;22.55;56.49;101341.66;5055078;28;20544;-45
2023/07/14 10:27:26;;;;;;;0.00;0.00;;;;;;;22.50;56.24;101328.59;5055591;28;20163;-51
2023/07/14 10:29:57;;;;;;;0.00;0.00;;;;;;;22.27;57.13;101334.09;5055359;28;20052;-50
2023/07/14 10:32:29;;;;;;;0.00;0.00;;;;;;;22.34;55.88;101324.38;5054970;28;20372;-48
2023/07/14 10:35:11;;;;;;;0.00;0.00;;;;;;;22.84;56.55;101316.78;5054657;28;20377;-46
2023/07/14 10:37:44;;;;;;;0.00;0.00;;;;;;;23.65;51.93;101316.38;5054545;28;20416;-43
2023/07/14 10:40:23;;;;;;;0.00;0.00;;;;;;;24.19;51.84;101315.44;5055151;28;20481;-50
2023/07/14 10:43:02;;;;;;;0.00;0.00;;;;;;;24.16;51.44;101308.44;5054340;28;20108;-50
2023/07/14 10:45:29;;;;;;;0.00;0.00;;;;;;;23.61;49.57;101304.19;5054677;28;20021;-50
2023/07/14 10:47:58;;;;;;;0.00;0.00;;;;;;;23.29;50.21;101306.47;5055222;28;20103;-50
2023/07/14 10:50:35;;;;;;;0.00;0.00;;;;;;;23.26;52.92;101298.63;5054028;28;20017;-49
2023/07/14 10:53:28;;;;;;;0.00;0.00;;;;;;;23.39;52.73;101299.28;5055003;28;20384;-51
2023/07/14 10:55:58;;;;;;;0.00;0.00;;;;;;;23.10;53.91;101297.09;5051173;28;20037;-50
2023/07/14 10:58:35;;;;;;;0.00;0.00;;;;;;;23.01;53.89;101295.50;5054388;28;20021;-47
2023/07/14 11:01:12;;;;;;;0.00;0.00;;;;;;;22.94;54.57;101286.81;5055018;28;20025;-46
2023/07/14 11:03:55;;;;;;;0.00;0.00;;;;;;;23.22;54.15;101291.69;5054083;28;20163;-51
2023/07/14 11:06:28;;;;;;;0.00;0.00;;;;;;;23.29;50.75;101295.06;5054554;28;20381;-50
2023/07/14 11:08:55;;;;;;;0.00;0.00;;;;;;;23.11;51.71;101298.84;5054890;28;20025;-49
2023/07/14 11:11:43;;;;;;;0.00;0.00;;;;;;;23.22;51.98;101289.06;5053977;28;20025;-49
2023/07/14 11:14:31;;;;;;;0.00;0.00;;;;;;;23.17;52.22;101275.97;5054536;28;20028;-51
2023/07/14 11:17:02;;;;;;;0.00;0.00;;;;;;;23.58;49.70;101265.66;5054149;28;20024;-48
2023/07/14 11:19:48;;;;;;;0.00;0.00;;;;;;;24.03;51.20;101270.09;5053773;28;20518;-48
2023/07/14 11:22:29;;;;;;;0.00;0.00;;;;;;;24.61;48.91;101268.00;5054270;28;20069;-49
2023/07/14 11:25:09;;;;;;;0.00;0.00;;;;;;;24.60;49.40;101246.97;5052622;28;20163;-49
2023/07/14 11:28:01;;;;;;;0.00;0.00;;;;;;;24.89;48.00;101219.94;5053978;28;20033;-49
2023/07/14 11:30:40;;;;;;;0.00;0.00;;;;;;;24.61;48.16;101233.75;5053706;28;20037;-49
2023/07/14 11:33:27;;;;;;;0.00;0.00;;;;;;;24.50;49.48;101233.13;5054114;28;20025;-47